Current Weather Conditions: station 44139

sailwx.info

Wind from 240 at 23 knots gusting 29

Wave height 4.1 meters (13 feet), 11 second period

Air temperature 6.7° C
Water temperature 8.6° C

Last reported at 2014-Dec-19 15:00 UTC.
Time now 2014-Dec-19 16:30 UTC

Location: N 44°12' W 057°06'.
View on Google Maps.

See reports from other nearby stations

  
Tides and Currents Weather Stations Pressure Air Temp Water Temp Dewpoint Dewpoint Depression Visibility Wind Speed Wind Dir Waves Ship Positions
date/time (UTC)wind fromknots sea level pressurealtimeterstation pressurevisibilityair tempwater tempwave heightnotes
2014-Dec-19 15:00 240 23 gusting 29 6.7 8.6 4.1
2014-Dec-19 14:00 240 21 gusting 27 6.9 8.6 4.0
2014-Dec-19 13:00 240 21 gusting 25 6.9 8.6 3.8
2014-Dec-19 12:00 240 23 gusting 29 7.0 8.6 3.8
2014-Dec-19 11:00 240 19 gusting 25 6.9 8.6 3.6
2014-Dec-19 10:00 240 21 gusting 25 6.8 8.5 3.6
2014-Dec-19 09:00 240 19 gusting 25 7.1 8.4 3.7
2014-Dec-19 08:00 240 23 gusting 27 7.1 8.3 3.6
2014-Dec-19 07:00 240 23 gusting 29 7.2 8.1 3.5
2014-Dec-19 06:00 230 21 gusting 25 8.1 7.5 3.1
2014-Dec-19 05:00 230 15 gusting 17 7.9 7.4 2.9
2014-Dec-19 04:00 250 19 gusting 23 7.8 7.4 3.0
2014-Dec-19 03:00 200 3 gusting 7 7.9 7.4 2.8
2014-Dec-19 02:00 280 3 gusting 7 8.7 7.5 2.8
2014-Dec-19 01:00 120 15 gusting 21 9.4 7.5 2.8
2014-Dec-19 00:00 100 19 gusting 23 8.7 7.4 3.0
2014-Dec-18 23:00 100 13 gusting 17 8.4 7.3 3.1
2014-Dec-18 22:00 090 11 gusting 13 8.2 7.3 2.9
2014-Dec-18 21:00 110 7 gusting 9 8.0 7.3 2.9
2014-Dec-18 20:00 130 3 gusting 5 7.8 7.4 3.0
2014-Dec-18 19:00 150 3 gusting 5 7.9 7.4 3.2
2014-Dec-18 18:00 180 1 8.8
2014-Dec-18 17:00 230 1 gusting 5 8.7 7.2 3.0
2014-Dec-18 16:00 230 3 gusting 5 8.5 7.1 3.3
2014-Dec-18 15:00 230 7 gusting 11 9.3 7.1 3.3
2014-Dec-18 14:00 140 19 gusting 23 10.2 7.2 3.3
2014-Dec-18 13:00 130 21 gusting 25 9.7 7.2 2.9
2014-Dec-18 12:00 120 21 gusting 25 9.4 7.3 3.0
2014-Dec-18 11:00 120 23 gusting 27 8.7 7.2 2.8
2014-Dec-18 10:00 110 23 gusting 29 8.3 7.2 2.7
2014-Dec-18 09:00 110 23 gusting 27 7.9 7.2 2.5
2014-Dec-18 08:00 110 21 gusting 27 7.5 7.1 2.5
2014-Dec-18 07:00 110 21 gusting 27 7.2 7.0 2.4
2014-Dec-18 06:00 110 19 gusting 23 7.0 7.0 2.4
2014-Dec-18 05:00 110 19 gusting 23 6.9 7.1 2.1
2014-Dec-18 04:00 110 17 gusting 23 6.7 7.1 2.2
2014-Dec-18 03:00 110 17 gusting 21 6.8 7.2 2.2
2014-Dec-18 02:00 100 13 gusting 17 6.3 7.2 2.2
2014-Dec-18 01:00 120 11 gusting 15 5.8 7.0 2.1
2014-Dec-18 00:00 110 13 gusting 15 5.8 7.0 2.2
2014-Dec-17 23:00 110 11 gusting 15 5.5 7.0 2.3
2014-Dec-17 22:00 120 9 gusting 11 5.0 7.1 2.3
2014-Dec-17 21:00 110 9 gusting 13 4.4 7.0 2.4
2014-Dec-17 20:00 120 7 gusting 13 4.5 7.1 2.1
2014-Dec-17 19:00 090 1 gusting 3 3.9 7.1 2.1
2014-Dec-17 18:00 160 1 gusting 3 3.6 7.3 2.1
2014-Dec-17 17:00 160 1 gusting 3 3.4 7.3 2.3
2014-Dec-17 16:00 160 1 gusting 3 3.4 7.3 2.2